createdAt,value
2022-09-17T00:01:36.451Z,99351.19
2022-09-17T00:04:04.597Z,99358.47
2022-09-17T00:06:35.560Z,99356.50
2022-09-17T00:09:07.343Z,99359.47
2022-09-17T00:11:39.454Z,99369.78
2022-09-17T00:14:14.299Z,99364.28
2022-09-17T00:16:43.824Z,99343.38
2022-09-17T00:19:16.307Z,99351.69
2022-09-17T00:21:43.620Z,99352.87
2022-09-17T00:24:11.900Z,99339.97
2022-09-17T00:26:38.833Z,99345.75
2022-09-17T00:29:06.663Z,99343.25
2022-09-17T00:31:34.430Z,99345.41
2022-09-17T00:34:02.294Z,99346.59
2022-09-17T00:36:29.607Z,99346.28
2022-09-17T00:38:58.762Z,99338.31
2022-09-17T00:41:28.286Z,99325.22
2022-09-17T00:43:57.857Z,99317.75
2022-09-17T00:46:45.009Z,99323.37
2022-09-17T00:49:26.900Z,99314.78
2022-09-17T00:52:21.258Z,99307.81
2022-09-17T00:54:54.468Z,99315.59
2022-09-17T00:57:21.297Z,99302.19
2022-09-17T00:59:48.839Z,99304.50
2022-09-17T01:02:16.012Z,99310.50
2022-09-17T01:04:43.021Z,99309.00
2022-09-17T01:07:47.584Z,99297.56
2022-09-17T01:10:27.911Z,99305.50
2022-09-17T01:12:59.242Z,99303.00
2022-09-17T01:15:49.003Z,99316.09
2022-09-17T01:18:37.044Z,99314.09
2022-09-17T01:21:18.728Z,99310.56
2022-09-17T01:24:02.943Z,99311.12
2022-09-17T01:26:47.807Z,99310.75
2022-09-17T01:30:02.645Z,99320.38
2022-09-17T01:32:39.809Z,99332.00
2022-09-17T01:35:19.314Z,99330.03
2022-09-17T01:38:12.657Z,99332.19
2022-09-17T01:40:48.405Z,99337.31
2022-09-17T01:43:22.320Z,99338.66
2022-09-17T01:45:57.192Z,99347.94
2022-09-17T01:48:27.598Z,99343.63
2022-09-17T01:51:01.008Z,99349.94
2022-09-17T01:53:44.736Z,99349.28
2022-09-17T01:56:15.374Z,99348.97
2022-09-17T01:58:43.260Z,99359.25
2022-09-17T02:01:12.284Z,99356.41
2022-09-17T02:03:49.370Z,99343.00
2022-09-17T02:06:18.196Z,99335.38
2022-09-17T02:08:53.535Z,99341.00
2022-09-17T02:11:20.573Z,99333.69
2022-09-17T02:13:55.838Z,99331.19
2022-09-17T02:16:35.965Z,99332.41
2022-09-17T02:19:07.594Z,99324.78
2022-09-17T02:21:52.588Z,99319.44
2022-09-17T02:24:25.843Z,99333.41
2022-09-17T02:26:58.706Z,99327.25
2022-09-17T02:29:35.569Z,99322.59
2022-09-17T02:32:03.063Z,99319.62
2022-09-17T02:34:29.875Z,99318.62
2022-09-17T02:36:58.676Z,99308.19
2022-09-17T02:39:26.409Z,99305.84
2022-09-17T02:42:30.846Z,99299.06
2022-09-17T02:44:57.760Z,99299.91
2022-09-17T02:47:31.598Z,99306.84
2022-09-17T02:50:18.943Z,99293.41
2022-09-17T02:53:04.475Z,99286.31
2022-09-17T02:55:52.458Z,99287.13
2022-09-17T02:58:34.130Z,99289.81
2022-09-17T03:01:06.714Z,99273.72
2022-09-17T03:03:37.507Z,99271.06
2022-09-17T03:06:05.145Z,99265.75
2022-09-17T03:08:38.105Z,99266.94
2022-09-17T03:11:05.923Z,99261.47
2022-09-17T03:13:32.696Z,99257.00
2022-09-17T03:15:59.550Z,99252.84
2022-09-17T03:18:26.595Z,99244.22
2022-09-17T03:20:53.385Z,99223.37
2022-09-17T03:23:20.215Z,99203.94
2022-09-17T03:25:49.468Z,99210.75
2022-09-17T03:28:16.967Z,99213.06
2022-09-17T03:30:44.972Z,99203.13
2022-09-17T03:33:12.321Z,99195.84
2022-09-17T03:35:43.230Z,99185.41
2022-09-17T03:38:10.255Z,99180.13
2022-09-17T03:40:37.345Z,99181.28
2022-09-17T03:43:04.662Z,99180.78
2022-09-17T03:45:31.540Z,99180.31
2022-09-17T03:47:58.739Z,99170.37
2022-09-17T03:50:25.548Z,99184.44
2022-09-17T03:52:52.316Z,99184.09
2022-09-17T03:55:19.344Z,99195.84
2022-09-17T03:57:46.211Z,99197.00
2022-09-17T04:00:15.363Z,99204.78
2022-09-17T04:02:42.961Z,99204.47
2022-09-17T04:05:10.205Z,99208.78
2022-09-17T04:07:37.011Z,99218.06
2022-09-17T04:10:05.286Z,99210.44
2022-09-17T04:12:32.185Z,99210.09
2022-09-17T04:14:59.023Z,99207.28
2022-09-17T04:17:26.077Z,99205.12
2022-09-17T04:19:53.552Z,99201.34
2022-09-17T04:22:20.347Z,99191.38
2022-09-17T04:24:47.363Z,99197.16
2022-09-17T04:27:14.159Z,99204.12
2022-09-17T04:29:41.095Z,99183.59
2022-09-17T04:32:08.716Z,99187.88
2022-09-17T04:34:35.500Z,99193.03
2022-09-17T04:37:02.301Z,99186.91
2022-09-17T04:39:29.410Z,99177.97
2022-09-17T04:41:56.199Z,99179.31
2022-09-17T04:44:23.003Z,99170.69
2022-09-17T04:46:50.166Z,99168.06
2022-09-17T04:49:17.032Z,99159.78
2022-09-17T04:51:43.804Z,99157.44
2022-09-17T04:54:10.820Z,99170.69
2022-09-17T04:56:40.527Z,99163.06
2022-09-17T04:59:07.375Z,99147.34
2022-09-17T05:01:36.775Z,99141.41
2022-09-17T05:04:03.560Z,99145.72
2022-09-17T05:06:30.344Z,99141.88
2022-09-17T05:08:57.570Z,99144.88
2022-09-17T05:11:24.495Z,99150.97
2022-09-17T05:13:51.280Z,99167.38
2022-09-17T05:16:18.686Z,99184.91
2022-09-17T05:18:45.619Z,99188.91
2022-09-17T05:21:12.521Z,99202.16
2022-09-17T05:23:39.568Z,99212.25
2022-09-17T05:26:06.344Z,99205.78
2022-09-17T05:28:33.132Z,99214.06
2022-09-17T05:31:00.616Z,99210.28
2022-09-17T05:33:27.571Z,99217.41
2022-09-17T05:35:54.435Z,99226.66
2022-09-17T05:38:21.672Z,99227.66
2022-09-17T05:40:50.977Z,99230.31
2022-09-17T05:43:17.888Z,99228.31
2022-09-17T05:45:44.962Z,99235.44
2022-09-17T05:48:13.670Z,99245.56
2022-09-17T05:50:41.439Z,99241.56
2022-09-17T05:53:13.001Z,99243.53
2022-09-17T05:55:39.881Z,99255.66
2022-09-17T05:58:14.723Z,99262.28
2022-09-17T06:00:42.613Z,99273.53
2022-09-17T06:03:13.818Z,99272.03
2022-09-17T06:05:40.979Z,99267.41
2022-09-17T06:08:08.352Z,99273.03
2022-09-17T06:10:38.999Z,99263.41
2022-09-17T06:13:05.785Z,99267.72
2022-09-17T06:15:32.576Z,99241.91
2022-09-17T06:17:59.579Z,99243.25
2022-09-17T06:20:26.374Z,99238.06
2022-09-17T06:22:57.404Z,99243.25
2022-09-17T06:25:25.236Z,99243.72
2022-09-17T06:27:52.203Z,99247.53
2022-09-17T06:30:19.012Z,99231.97
2022-09-17T06:32:46.235Z,99235.59
2022-09-17T06:35:13.046Z,99239.91
2022-09-17T06:37:40.776Z,99242.88
2022-09-17T06:40:09.005Z,99236.25
2022-09-17T06:42:35.917Z,99231.78
2022-09-17T06:45:07.670Z,99232.16
2022-09-17T06:47:35.745Z,99231.63
2022-09-17T06:50:02.555Z,99246.56
2022-09-17T06:52:29.375Z,99248.19
2022-09-17T06:54:56.524Z,99249.84
2022-09-17T06:57:23.287Z,99249.53
2022-09-17T06:59:50.224Z,99250.84
2022-09-17T07:02:17.354Z,99249.84
2022-09-17T07:04:44.442Z,99242.91
2022-09-17T07:07:11.414Z,99252.50
2022-09-17T07:09:38.451Z,99257.62
2022-09-17T07:12:09.055Z,99272.06
2022-09-17T07:14:36.007Z,99262.13
2022-09-17T07:17:03.436Z,99246.41
2022-09-17T07:19:30.297Z,99250.19
2022-09-17T07:21:57.056Z,99249.53
2022-09-17T07:24:24.083Z,99248.19
2022-09-17T07:26:51.599Z,99258.62
2022-09-17T07:29:18.684Z,99257.88
2022-09-17T07:31:45.763Z,99254.03
2022-09-17T07:34:12.632Z,99259.34
2022-09-17T07:36:39.408Z,99261.63
2022-09-17T07:39:10.083Z,99276.97
2022-09-17T07:41:40.336Z,99276.94
2022-09-17T07:44:10.093Z,99276.72
2022-09-17T07:46:37.201Z,99275.06
2022-09-17T07:49:04.033Z,99285.66
2022-09-17T07:51:32.433Z,99282.97
2022-09-17T07:53:59.535Z,99280.34
2022-09-17T07:56:27.373Z,99271.53
2022-09-17T07:58:54.904Z,99265.03
2022-09-17T08:01:22.629Z,99269.47
2022-09-17T08:03:52.519Z,99274.44
2022-09-17T08:06:21.843Z,99290.69
2022-09-17T08:08:48.783Z,99314.28
2022-09-17T08:11:38.284Z,99318.66
2022-09-17T08:14:12.828Z,99322.34
2022-09-17T08:16:40.157Z,99317.66
2022-09-17T08:19:12.560Z,99311.25
2022-09-17T08:21:39.617Z,99310.66
2022-09-17T08:24:09.703Z,99309.13
2022-09-17T08:26:40.503Z,99319.22
2022-09-17T08:29:11.233Z,99322.41
2022-09-17T08:31:40.989Z,99333.72
2022-09-17T08:34:11.571Z,99324.28
2022-09-17T08:36:41.286Z,99319.19
2022-09-17T08:39:08.429Z,99322.28
2022-09-17T08:42:15.336Z,99316.16
2022-09-17T08:44:43.644Z,99302.19
2022-09-17T08:47:25.577Z,99296.28
2022-09-17T08:49:55.863Z,99302.19
2022-09-17T08:52:34.474Z,99295.44
2022-09-17T08:55:21.324Z,99297.06
2022-09-17T08:57:57.817Z,99299.03
2022-09-17T09:00:26.575Z,99298.66
2022-09-17T09:02:53.811Z,99308.47
2022-09-17T09:05:46.170Z,99312.44
2022-09-17T09:08:30.651Z,99313.72
2022-09-17T09:11:00.881Z,99306.94
2022-09-17T09:13:47.051Z,99316.34
2022-09-17T09:16:20.449Z,99313.50
2022-09-17T09:18:50.823Z,99309.41
2022-09-17T09:21:27.984Z,99297.44
2022-09-17T09:23:58.597Z,99306.41
2022-09-17T09:26:28.441Z,99315.94
2022-09-17T09:29:11.003Z,99299.84
2022-09-17T09:31:50.696Z,99294.63
2022-09-17T09:34:17.811Z,99312.50
2022-09-17T09:36:45.253Z,99301.09
2022-09-17T09:39:20.228Z,99308.00
2022-09-17T09:42:05.815Z,99315.53
2022-09-17T09:44:32.744Z,99318.03
2022-09-17T09:47:19.208Z,99302.47
2022-09-17T09:50:20.168Z,99309.75
2022-09-17T09:53:10.082Z,99305.16
2022-09-17T09:56:04.119Z,99314.16
2022-09-17T09:58:36.010Z,99313.50
2022-09-17T10:01:07.973Z,99316.97
2022-09-17T10:03:40.077Z,99312.16
2022-09-17T10:06:10.812Z,99300.72
2022-09-17T10:08:45.069Z,99285.88
2022-09-17T10:11:11.710Z,99282.66
2022-09-17T10:13:39.228Z,99290.00
2022-09-17T10:16:21.230Z,99303.47
2022-09-17T10:18:49.714Z,99297.81
2022-09-17T10:21:19.376Z,99279.50
2022-09-17T10:27:07.705Z,99262.28
2022-09-17T10:29:34.895Z,99241.47
2022-09-17T10:32:02.695Z,99233.56
2022-09-17T10:34:32.912Z,99260.56
2022-09-17T10:36:59.798Z,99256.56
2022-09-17T10:39:26.736Z,99257.78
2022-09-17T10:42:15.654Z,99253.78
2022-09-17T10:45:12.039Z,99241.22
2022-09-17T10:47:43.811Z,99219.25
2022-09-17T10:50:18.784Z,99214.94
2022-09-17T10:52:50.871Z,99212.91
2022-09-17T10:55:30.953Z,99184.09
2022-09-17T10:58:10.016Z,99154.03
2022-09-17T11:01:02.716Z,99180.81
2022-09-17T11:03:53.564Z,99202.66
2022-09-17T11:06:20.465Z,99207.06
2022-09-17T11:09:05.720Z,99228.88
2022-09-17T11:11:55.877Z,99244.25
2022-09-17T11:14:51.771Z,99236.97
2022-09-17T11:17:46.659Z,99223.25
2022-09-17T11:20:22.464Z,99239.78
2022-09-17T11:23:05.140Z,99262.44
2022-09-17T11:25:55.199Z,99262.97
2022-09-17T11:28:48.292Z,99263.88
2022-09-17T11:31:49.610Z,99261.31
2022-09-17T11:34:49.117Z,99231.53
2022-09-17T11:37:26.900Z,99230.91
2022-09-17T11:39:58.841Z,99222.97
2022-09-17T11:42:33.761Z,99208.06
2022-09-17T11:45:06.149Z,99200.81
2022-09-17T11:47:38.697Z,99204.44
2022-09-17T11:50:12.896Z,99183.88
2022-09-17T11:53:01.701Z,99170.09
2022-09-17T11:55:57.754Z,99166.91
2022-09-17T11:58:31.533Z,99150.38
2022-09-17T12:01:05.957Z,99119.78
2022-09-17T12:03:34.986Z,99118.03
2022-09-17T12:06:08.248Z,99133.94
2022-09-17T12:08:44.560Z,99129.63
2022-09-17T12:11:17.381Z,99128.03
2022-09-17T12:13:48.643Z,99135.44
2022-09-17T12:16:20.500Z,99120.88
2022-09-17T12:19:05.351Z,99112.38
2022-09-17T12:21:40.895Z,99107.28
2022-09-17T12:24:15.091Z,99109.03
2022-09-17T12:27:00.391Z,99105.16
2022-09-17T12:29:51.031Z,99096.97
2022-09-17T12:32:23.611Z,99096.91
2022-09-17T12:35:19.981Z,99089.41
2022-09-17T12:38:08.478Z,99091.44
2022-09-17T12:40:58.434Z,99078.41
2022-09-17T12:43:34.294Z,99069.81
2022-09-17T12:46:10.384Z,99087.13
2022-09-17T12:49:02.706Z,99095.75
2022-09-17T12:51:52.236Z,99105.59
2022-09-17T12:54:57.151Z,99110.34
2022-09-17T12:57:34.239Z,99106.78
2022-09-17T13:00:14.644Z,99104.84
2022-09-17T13:03:03.389Z,99103.28
2022-09-17T13:05:40.001Z,99109.31
2022-09-17T13:08:35.615Z,99111.16
2022-09-17T13:11:25.224Z,99103.75
2022-09-17T13:14:12.656Z,99087.69
2022-09-17T13:16:52.463Z,99083.91
2022-09-17T13:19:40.116Z,99087.84
2022-09-17T13:22:13.680Z,99087.41
2022-09-17T13:24:43.867Z,99086.91
2022-09-17T13:27:27.010Z,99073.06
2022-09-17T13:29:54.246Z,99070.09
2022-09-17T13:32:33.005Z,99052.84
2022-09-17T13:35:12.218Z,99049.78
2022-09-17T13:37:45.065Z,99035.16
2022-09-17T13:40:34.881Z,99035.50
2022-09-17T13:43:05.678Z,99030.44
2022-09-17T13:45:34.441Z,99036.56
2022-09-17T13:48:06.105Z,99049.38
2022-09-17T13:50:37.303Z,99036.12
2022-09-17T13:53:16.236Z,99040.97
2022-09-17T13:55:48.122Z,99031.06
2022-09-17T13:58:20.793Z,99026.66
2022-09-17T14:01:01.243Z,99040.19
2022-09-17T14:03:31.146Z,99034.16
2022-09-17T14:06:24.421Z,99048.47
2022-09-17T14:08:54.502Z,99057.09
2022-09-17T14:11:28.294Z,99043.09
2022-09-17T14:13:56.655Z,99050.66
2022-09-17T14:16:29.244Z,99046.38
2022-09-17T14:18:59.702Z,99057.59
2022-09-17T14:21:34.115Z,99073.66
2022-09-17T14:24:19.290Z,99068.84
2022-09-17T14:27:01.412Z,99081.69
2022-09-17T14:29:48.658Z,99078.34
2022-09-17T14:32:27.751Z,99080.06
2022-09-17T14:34:54.874Z,99101.53
2022-09-17T14:37:22.700Z,99097.56
2022-09-17T14:39:50.554Z,99107.53
2022-09-17T14:42:34.457Z,99105.91
2022-09-17T14:45:07.853Z,99108.41
2022-09-17T14:47:34.945Z,99109.56
2022-09-17T14:50:37.556Z,99107.91
2022-09-17T14:53:12.254Z,99093.31
2022-09-17T14:55:40.633Z,99091.19
2022-09-17T14:58:26.008Z,99098.62
2022-09-17T15:00:53.425Z,99096.28
2022-09-17T15:03:24.627Z,99115.81
2022-09-17T15:05:51.592Z,99119.16
2022-09-17T15:08:30.463Z,99112.22
2022-09-17T15:11:09.773Z,99119.47
2022-09-17T15:13:42.227Z,99110.06
2022-09-17T15:16:20.061Z,99111.22
2022-09-17T15:18:58.475Z,99106.91
2022-09-17T15:21:44.091Z,99095.97
2022-09-17T15:24:15.927Z,99083.06
2022-09-17T15:26:43.577Z,99081.13
2022-09-17T15:29:12.717Z,99078.16
2022-09-17T15:31:39.614Z,99085.78
2022-09-17T15:34:06.720Z,99090.12
2022-09-17T15:36:33.499Z,99097.25
2022-09-17T15:39:00.347Z,99094.00
2022-09-17T15:41:29.262Z,99083.91
2022-09-17T15:44:30.134Z,99078.28
2022-09-17T15:47:37.949Z,99067.19
2022-09-17T15:50:24.437Z,99055.41
2022-09-17T15:52:59.172Z,99073.47
2022-09-17T15:55:33.912Z,99069.28
2022-09-17T15:58:03.995Z,99070.44
2022-09-17T16:00:31.650Z,99081.69
2022-09-17T16:02:58.744Z,99064.13
2022-09-17T16:05:25.413Z,99073.91
2022-09-17T16:07:52.422Z,99075.91
2022-09-17T16:10:19.684Z,99072.25
2022-09-17T16:12:49.521Z,99073.09
2022-09-17T16:15:17.482Z,99064.25
2022-09-17T16:17:47.710Z,99054.00
2022-09-17T16:20:15.787Z,99042.41
2022-09-17T16:22:43.379Z,99058.81
2022-09-17T16:25:11.526Z,99049.72
2022-09-17T16:27:48.500Z,99050.72
2022-09-17T16:30:18.597Z,99051.06
2022-09-17T16:32:45.784Z,99046.13
2022-09-17T16:35:17.055Z,99036.69
2022-09-17T16:37:48.238Z,99037.88
2022-09-17T16:40:15.070Z,99044.00
2022-09-17T16:42:41.943Z,99042.16
2022-09-17T16:45:12.392Z,99047.78
2022-09-17T16:47:42.945Z,99053.78
2022-09-17T16:50:15.400Z,99059.41
2022-09-17T16:52:42.403Z,99054.78
2022-09-17T16:55:09.456Z,99047.84
2022-09-17T16:57:36.499Z,99045.81
2022-09-17T17:00:16.181Z,99048.47
2022-09-17T17:02:43.903Z,99060.09
2022-09-17T17:05:10.720Z,99071.53
2022-09-17T17:07:40.263Z,99075.31
2022-09-17T17:10:10.355Z,99074.62
2022-09-17T17:12:40.260Z,99057.44
2022-09-17T17:15:10.252Z,99054.31
2022-09-17T17:17:40.060Z,99043.22
2022-09-17T17:20:10.337Z,99021.72
2022-09-17T17:22:40.726Z,99029.97
2022-09-17T17:25:07.830Z,99043.22
2022-09-17T17:27:35.423Z,99050.34
2022-09-17T17:30:04.616Z,99052.16
2022-09-17T17:32:36.859Z,99047.06
2022-09-17T17:35:04.728Z,99048.87
2022-09-17T17:37:31.768Z,99055.31
2022-09-17T17:39:58.601Z,99057.13
2022-09-17T17:42:25.416Z,99046.22
2022-09-17T17:44:52.530Z,99050.03
2022-09-17T17:47:19.324Z,99060.78
2022-09-17T17:49:46.088Z,99070.38
2022-09-17T17:52:13.175Z,99072.03
2022-09-17T17:54:40.085Z,99086.28
2022-09-17T17:57:07.487Z,99094.72
2022-09-17T17:59:34.526Z,99083.94
2022-09-17T18:02:01.408Z,99090.25
2022-09-17T18:04:28.531Z,99106.63
2022-09-17T18:06:55.354Z,99108.44
2022-09-17T18:09:22.202Z,99113.41
2022-09-17T18:11:49.266Z,99117.03
2022-09-17T18:14:16.071Z,99116.56
2022-09-17T18:16:42.873Z,99113.72
2022-09-17T18:19:11.173Z,99102.50
2022-09-17T18:21:38.327Z,99104.81
2022-09-17T18:24:05.151Z,99112.09
2022-09-17T18:26:32.619Z,99114.41
2022-09-17T18:29:00.739Z,99109.75
2022-09-17T18:31:31.347Z,99111.59
2022-09-17T18:34:10.999Z,99116.72
2022-09-17T18:36:39.506Z,99123.00
2022-09-17T18:39:46.699Z,99110.41
2022-09-17T18:41:54.891Z,99106.78
2022-09-17T18:44:22.381Z,99110.72
2022-09-17T18:46:50.077Z,99115.38
2022-09-17T18:49:17.179Z,99112.22
2022-09-17T18:51:44.281Z,99116.66
2022-09-17T18:54:12.545Z,99114.69
2022-09-17T18:56:40.184Z,99110.56
2022-09-17T18:59:08.348Z,99105.56
2022-09-17T19:01:35.634Z,99096.81
2022-09-17T19:04:03.820Z,99100.41
2022-09-17T19:06:32.229Z,99096.63
2022-09-17T19:09:00.755Z,99104.09
2022-09-17T19:11:27.885Z,99104.63
2022-09-17T19:13:54.946Z,99107.09
2022-09-17T19:16:22.257Z,99114.84
2022-09-17T19:18:49.335Z,99132.72
2022-09-17T19:21:18.390Z,99135.50
2022-09-17T19:23:47.199Z,99133.19
2022-09-17T19:26:22.334Z,99139.00
2022-09-17T19:28:53.127Z,99131.22
2022-09-17T19:31:20.592Z,99128.91
2022-09-17T19:33:47.668Z,99131.56
2022-09-17T19:36:16.927Z,99139.16
2022-09-17T19:38:44.146Z,99137.31
2022-09-17T19:41:16.185Z,99149.44
2022-09-17T19:43:45.025Z,99151.09
2022-09-17T19:46:17.890Z,99148.91
2022-09-17T19:48:49.838Z,99157.69
2022-09-17T19:51:17.489Z,99151.38
2022-09-17T19:53:44.388Z,99152.91
2022-09-17T19:56:16.960Z,99150.59
2022-09-17T19:58:43.890Z,99147.44
2022-09-17T20:01:11.077Z,99155.16
2022-09-17T20:03:39.080Z,99141.56
2022-09-17T20:06:07.490Z,99147.69
2022-09-17T20:08:39.292Z,99146.97
2022-09-17T20:11:10.204Z,99150.13
2022-09-17T20:13:37.456Z,99143.50
2022-09-17T20:16:12.083Z,99140.56
2022-09-17T20:18:39.643Z,99138.75
2022-09-17T20:21:18.178Z,99148.16
2022-09-17T20:23:45.201Z,99148.94
2022-09-17T20:26:13.128Z,99149.31
2022-09-17T20:28:40.081Z,99144.12
2022-09-17T20:31:10.549Z,99148.59
2022-09-17T20:33:37.395Z,99162.28
2022-09-17T20:36:06.417Z,99161.78
2022-09-17T20:39:10.165Z,99157.44
2022-09-17T20:41:21.000Z,99159.72
2022-09-17T20:43:50.072Z,99157.34
2022-09-17T20:46:17.694Z,99164.94
2022-09-17T20:48:44.531Z,99170.84
2022-09-17T20:51:17.380Z,99165.56
2022-09-17T20:53:45.863Z,99172.16
2022-09-17T20:56:14.685Z,99162.84
2022-09-17T20:58:48.511Z,99172.78
2022-09-17T21:01:23.522Z,99164.41
2022-09-17T21:03:54.134Z,99171.50
2022-09-17T21:06:23.873Z,99169.84
2022-09-17T21:08:51.708Z,99178.81
2022-09-17T21:11:20.724Z,99174.34
2022-09-17T21:13:48.158Z,99176.13
2022-09-17T21:16:15.858Z,99185.34
2022-09-17T21:18:43.174Z,99190.63
2022-09-17T21:21:12.201Z,99185.22
2022-09-17T21:23:43.968Z,99183.56
2022-09-17T21:26:13.793Z,99182.44
2022-09-17T21:28:42.093Z,99198.22
2022-09-17T21:31:26.286Z,99198.75
2022-09-17T21:33:57.280Z,99198.59
2022-09-17T21:36:26.206Z,99193.31
2022-09-17T21:38:54.764Z,99197.16
2022-09-17T21:41:23.003Z,99200.94
2022-09-17T21:43:51.714Z,99208.37
2022-09-17T21:46:20.797Z,99206.59
2022-09-17T21:48:59.980Z,99204.50
2022-09-17T21:51:30.414Z,99209.06
2022-09-17T21:53:59.293Z,99203.31
2022-09-17T21:56:27.420Z,99210.28
2022-09-17T21:58:59.537Z,99205.84
2022-09-17T22:01:39.740Z,99209.69
2022-09-17T22:04:13.025Z,99212.41
2022-09-17T22:06:40.994Z,99225.25
2022-09-17T22:09:14.204Z,99224.25
2022-09-17T22:11:41.054Z,99222.75
2022-09-17T22:14:17.835Z,99221.38
2022-09-17T22:16:46.876Z,99224.50
2022-09-17T22:19:15.431Z,99212.56
2022-09-17T22:21:45.884Z,99211.53
2022-09-17T22:24:14.040Z,99216.94
2022-09-17T22:26:45.835Z,99212.72
2022-09-17T22:29:17.679Z,99211.34
2022-09-17T22:31:45.613Z,99217.63
2022-09-17T22:34:15.044Z,99224.00
2022-09-17T22:36:42.005Z,99217.25
2022-09-17T22:39:09.122Z,99224.00
2022-09-17T22:41:37.663Z,99216.78
2022-09-17T22:44:06.632Z,99229.28
2022-09-17T22:46:41.452Z,99230.03
2022-09-17T22:49:09.940Z,99232.09
2022-09-17T22:51:37.603Z,99236.84
2022-09-17T22:54:04.613Z,99245.44
2022-09-17T22:56:31.426Z,99248.75
2022-09-17T22:58:59.042Z,99245.34
2022-09-17T23:01:29.031Z,99254.06
2022-09-17T23:03:56.704Z,99241.88
2022-09-17T23:06:26.458Z,99245.34
2022-09-17T23:08:53.544Z,99253.84
2022-09-17T23:11:28.986Z,99264.09
2022-09-17T23:13:57.721Z,99248.84
2022-09-17T23:16:24.661Z,99255.78
2022-09-17T23:18:51.479Z,99248.84
2022-09-17T23:21:19.099Z,99252.75
2022-09-17T23:23:47.949Z,99253.13
2022-09-17T23:26:26.254Z,99241.09
2022-09-17T23:28:53.612Z,99256.38
2022-09-17T23:31:26.020Z,99252.47
2022-09-17T23:33:54.676Z,99257.16
2022-09-17T23:36:27.233Z,99263.56
2022-09-17T23:38:55.539Z,99257.06
2022-09-17T23:41:31.675Z,99255.94
2022-09-17T23:44:00.807Z,99255.94
2022-09-17T23:46:30.220Z,99252.31
2022-09-17T23:48:57.239Z,99256.84
2022-09-17T23:51:26.286Z,99262.81
2022-09-17T23:53:54.434Z,99266.12
2022-09-17T23:56:23.286Z,99263.94
2022-09-17T23:58:50.615Z,99257.97
